sensor_id;sensor_type;location;lat;lon;timestamp;temperature;humidity
47540;DHT22;33280;52.152;21.052;2024-03-23T00:56:32;8.70;99.90
47540;DHT22;33280;52.152;21.052;2024-03-23T00:59:18;8.70;99.90
47540;DHT22;33280;52.152;21.052;2024-03-23T01:02:04;8.60;99.90
47540;DHT22;33280;52.152;21.052;2024-03-23T01:04:51;8.60;99.90
47540;DHT22;33280;52.152;21.052;2024-03-23T01:07:37;8.60;99.90
47540;DHT22;33280;52.152;21.052;2024-03-23T01:10:23;8.60;99.90
47540;DHT22;33280;52.152;21.052;2024-03-23T01:13:09;8.50;99.90
47540;DHT22;33280;52.152;21.052;2024-03-23T01:15:56;8.50;99.90
47540;DHT22;33280;52.152;21.052;2024-03-23T01:18:43;8.50;99.90
47540;DHT22;33280;52.152;21.052;2024-03-23T01:21:29;8.50;99.90
47540;DHT22;33280;52.152;21.052;2024-03-23T01:24:15;8.50;99.90
47540;DHT22;33280;52.152;21.052;2024-03-23T01:27:02;8.50;99.90
47540;DHT22;33280;52.152;21.052;2024-03-23T01:29:49;8.50;99.90
47540;DHT22;33280;52.152;21.052;2024-03-23T01:32:35;8.50;99.90
47540;DHT22;33280;52.152;21.052;2024-03-23T01:35:22;8.50;99.90
47540;DHT22;33280;52.152;21.052;2024-03-23T01:38:09;8.50;99.90
47540;DHT22;33280;52.152;21.052;2024-03-23T01:40:58;8.50;99.90
47540;DHT22;33280;52.152;21.052;2024-03-23T01:43:45;8.50;99.90
47540;DHT22;33280;52.152;21.052;2024-03-23T01:46:31;8.50;99.90
47540;DHT22;33280;52.152;21.052;2024-03-23T01:49:18;8.50;99.90
47540;DHT22;33280;52.152;21.052;2024-03-23T01:52:04;8.50;99.90
47540;DHT22;33280;52.152;21.052;2024-03-23T01:54:51;8.50;99.90
47540;DHT22;33280;52.152;21.052;2024-03-23T01:57:37;8.50;99.90
47540;DHT22;33280;52.152;21.052;2024-03-23T02:00:24;8.50;99.90
47540;DHT22;33280;52.152;21.052;2024-03-23T02:03:27;8.50;99.90
47540;DHT22;33280;52.152;21.052;2024-03-23T02:06:14;8.50;99.90
47540;DHT22;33280;52.152;21.052;2024-03-23T02:09:00;8.50;99.90
47540;DHT22;33280;52.152;21.052;2024-03-23T02:11:47;8.50;99.90
47540;DHT22;33280;52.152;21.052;2024-03-23T02:14:33;8.60;99.90
47540;DHT22;33280;52.152;21.052;2024-03-23T02:17:20;8.50;99.90
47540;DHT22;33280;52.152;21.052;2024-03-23T02:20:07;8.60;99.90
47540;DHT22;33280;52.152;21.052;2024-03-23T02:22:53;8.50;99.90
47540;DHT22;33280;52.152;21.052;2024-03-23T02:25:40;8.60;99.90
47540;DHT22;33280;52.152;21.052;2024-03-23T02:28:26;8.60;99.90
47540;DHT22;33280;52.152;21.052;2024-03-23T02:31:13;8.60;99.90
47540;DHT22;33280;52.152;21.052;2024-03-23T02:33:59;8.50;99.90
47540;DHT22;33280;52.152;21.052;2024-03-23T02:36:46;8.50;99.90
47540;DHT22;33280;52.152;21.052;2024-03-23T02:39:32;8.50;99.90
47540;DHT22;33280;52.152;21.052;2024-03-23T02:42:19;8.50;99.90
47540;DHT22;33280;52.152;21.052;2024-03-23T02:45:06;8.50;99.90
47540;DHT22;33280;52.152;21.052;2024-03-23T02:47:52;8.60;99.90
47540;DHT22;33280;52.152;21.052;2024-03-23T02:50:39;8.60;99.90
47540;DHT22;33280;52.152;21.052;2024-03-23T02:53:26;8.60;99.90
47540;DHT22;33280;52.152;21.052;2024-03-23T02:56:12;8.60;99.90
47540;DHT22;33280;52.152;21.052;2024-03-23T02:59:02;8.60;99.90
47540;DHT22;33280;52.152;21.052;2024-03-23T03:01:48;8.70;99.90
47540;DHT22;33280;52.152;21.052;2024-03-23T03:04:34;8.60;99.90
47540;DHT22;33280;52.152;21.052;2024-03-23T03:07:21;8.60;99.90
47540;DHT22;33280;52.152;21.052;2024-03-23T03:10:08;8.70;99.90
47540;DHT22;33280;52.152;21.052;2024-03-23T03:12:57;8.70;99.90
47540;DHT22;33280;52.152;21.052;2024-03-23T03:15:44;8.70;99.90
47540;DHT22;33280;52.152;21.052;2024-03-23T03:18:30;8.70;99.90
47540;DHT22;33280;52.152;21.052;2024-03-23T03:21:16;8.70;99.90
47540;DHT22;33280;52.152;21.052;2024-03-23T03:24:05;8.70;99.90
47540;DHT22;33280;52.152;21.052;2024-03-23T03:26:52;8.70;99.90
47540;DHT22;33280;52.152;21.052;2024-03-23T03:29:38;8.70;99.90
47540;DHT22;33280;52.152;21.052;2024-03-23T03:32:25;8.70;99.90
47540;DHT22;33280;52.152;21.052;2024-03-23T03:35:12;8.70;99.90
47540;DHT22;33280;52.152;21.052;2024-03-23T03:37:59;8.70;99.90
47540;DHT22;33280;52.152;21.052;2024-03-23T03:40:45;8.70;99.90
47540;DHT22;33280;52.152;21.052;2024-03-23T03:43:32;8.70;99.90
47540;DHT22;33280;52.152;21.052;2024-03-23T03:46:19;8.70;99.90
47540;DHT22;33280;52.152;21.052;2024-03-23T03:49:05;8.70;99.90
47540;DHT22;33280;52.152;21.052;2024-03-23T03:51:52;8.70;99.90
47540;DHT22;33280;52.152;21.052;2024-03-23T03:54:38;8.70;99.90
47540;DHT22;33280;52.152;21.052;2024-03-23T03:57:24;8.70;99.90
47540;DHT22;33280;52.152;21.052;2024-03-23T04:00:12;8.70;99.90
47540;DHT22;33280;52.152;21.052;2024-03-23T04:02:58;8.70;99.90
47540;DHT22;33280;52.152;21.052;2024-03-23T04:05:53;8.70;99.90
47540;DHT22;33280;52.152;21.052;2024-03-23T04:08:39;8.70;99.90
47540;DHT22;33280;52.152;21.052;2024-03-23T04:11:26;8.70;99.90
47540;DHT22;33280;52.152;21.052;2024-03-23T04:14:12;8.60;99.90
47540;DHT22;33280;52.152;21.052;2024-03-23T04:16:59;8.70;99.90
47540;DHT22;33280;52.152;21.052;2024-03-23T04:19:45;8.70;99.90
47540;DHT22;33280;52.152;21.052;2024-03-23T04:22:32;8.70;99.90
47540;DHT22;33280;52.152;21.052;2024-03-23T04:25:18;8.70;99.90
47540;DHT22;33280;52.152;21.052;2024-03-23T04:28:06;8.70;99.90
47540;DHT22;33280;52.152;21.052;2024-03-23T04:30:52;8.70;99.90
47540;DHT22;33280;52.152;21.052;2024-03-23T04:33:39;8.70;99.90
47540;DHT22;33280;52.152;21.052;2024-03-23T04:36:25;8.70;99.90
47540;DHT22;33280;52.152;21.052;2024-03-23T04:39:12;8.70;99.90
47540;DHT22;33280;52.152;21.052;2024-03-23T04:41:59;8.70;99.90
47540;DHT22;33280;52.152;21.052;2024-03-23T04:44:45;8.70;99.90
47540;DHT22;33280;52.152;21.052;2024-03-23T04:47:31;8.80;99.90
47540;DHT22;33280;52.152;21.052;2024-03-23T04:50:18;8.80;99.90
47540;DHT22;33280;52.152;21.052;2024-03-23T04:53:04;8.70;99.90
47540;DHT22;33280;52.152;21.052;2024-03-23T04:55:51;8.70;99.90
47540;DHT22;33280;52.152;21.052;2024-03-23T04:58:37;8.70;99.90
47540;DHT22;33280;52.152;21.052;2024-03-23T05:01:23;8.70;99.90
47540;DHT22;33280;52.152;21.052;2024-03-23T05:04:10;8.70;99.90
47540;DHT22;33280;52.152;21.052;2024-03-23T05:06:56;8.70;99.90
47540;DHT22;33280;52.152;21.052;2024-03-23T05:09:43;8.70;99.90
47540;DHT22;33280;52.152;21.052;2024-03-23T05:12:29;8.70;99.90
47540;DHT22;33280;52.152;21.052;2024-03-23T05:15:16;8.80;99.90
47540;DHT22;33280;52.152;21.052;2024-03-23T05:18:03;8.80;99.90
47540;DHT22;33280;52.152;21.052;2024-03-23T05:20:58;8.80;99.90
47540;DHT22;33280;52.152;21.052;2024-03-23T05:23:45;8.80;99.90
47540;DHT22;33280;52.152;21.052;2024-03-23T05:26:31;8.80;99.90
47540;DHT22;33280;52.152;21.052;2024-03-23T05:29:20;8.80;99.90
47540;DHT22;33280;52.152;21.052;2024-03-23T05:32:07;8.80;99.90
47540;DHT22;33280;52.152;21.052;2024-03-23T05:34:54;8.80;99.90
47540;DHT22;33280;52.152;21.052;2024-03-23T05:37:42;8.80;99.90
47540;DHT22;33280;52.152;21.052;2024-03-23T05:40:29;8.90;99.90
47540;DHT22;33280;52.152;21.052;2024-03-23T05:43:16;8.80;99.90
47540;DHT22;33280;52.152;21.052;2024-03-23T05:46:03;8.80;99.90
47540;DHT22;33280;52.152;21.052;2024-03-23T05:49:01;8.90;99.90
47540;DHT22;33280;52.152;21.052;2024-03-23T05:51:49;8.90;99.90
47540;DHT22;33280;52.152;21.052;2024-03-23T05:54:36;8.90;99.90
47540;DHT22;33280;52.152;21.052;2024-03-23T05:57:22;8.90;99.90
47540;DHT22;33280;52.152;21.052;2024-03-23T06:00:10;8.90;99.90
47540;DHT22;33280;52.152;21.052;2024-03-23T06:03:02;8.90;99.90
47540;DHT22;33280;52.152;21.052;2024-03-23T06:05:48;8.90;99.90
47540;DHT22;33280;52.152;21.052;2024-03-23T06:08:35;8.90;99.90
47540;DHT22;33280;52.152;21.052;2024-03-23T06:11:22;9.00;99.90
47540;DHT22;33280;52.152;21.052;2024-03-23T06:14:08;9.00;99.90
47540;DHT22;33280;52.152;21.052;2024-03-23T06:16:54;9.00;99.90
47540;DHT22;33280;52.152;21.052;2024-03-23T06:19:41;9.10;99.90
47540;DHT22;33280;52.152;21.052;2024-03-23T06:22:27;9.00;99.90
47540;DHT22;33280;52.152;21.052;2024-03-23T06:25:14;9.00;99.90
47540;DHT22;33280;52.152;21.052;2024-03-23T06:28:00;9.10;99.90
47540;DHT22;33280;52.152;21.052;2024-03-23T06:30:48;9.10;99.90
47540;DHT22;33280;52.152;21.052;2024-03-23T06:33:35;9.10;99.90
47540;DHT22;33280;52.152;21.052;2024-03-23T06:36:21;9.10;99.90
47540;DHT22;33280;52.152;21.052;2024-03-23T06:39:08;9.10;99.90
47540;DHT22;33280;52.152;21.052;2024-03-23T06:41:58;9.10;99.90
47540;DHT22;33280;52.152;21.052;2024-03-23T06:44:44;9.20;99.90
47540;DHT22;33280;52.152;21.052;2024-03-23T06:47:31;9.20;99.90
47540;DHT22;33280;52.152;21.052;2024-03-23T06:50:17;9.20;99.90
47540;DHT22;33280;52.152;21.052;2024-03-23T06:53:04;9.10;99.90
47540;DHT22;33280;52.152;21.052;2024-03-23T06:55:55;9.10;99.90
47540;DHT22;33280;52.152;21.052;2024-03-23T06:58:41;9.10;99.90
47540;DHT22;33280;52.152;21.052;2024-03-23T07:01:28;9.20;99.90
47540;DHT22;33280;52.152;21.052;2024-03-23T07:04:17;9.20;99.90
47540;DHT22;33280;52.152;21.052;2024-03-23T07:07:05;9.20;99.90
47540;DHT22;33280;52.152;21.052;2024-03-23T07:09:51;9.20;99.90
47540;DHT22;33280;52.152;21.052;2024-03-23T07:12:38;9.20;99.90
47540;DHT22;33280;52.152;21.052;2024-03-23T07:15:25;9.20;99.90
47540;DHT22;33280;52.152;21.052;2024-03-23T07:18:12;9.30;99.90
47540;DHT22;33280;52.152;21.052;2024-03-23T07:20:58;9.20;99.90
47540;DHT22;33280;52.152;21.052;2024-03-23T07:23:45;9.20;99.90
47540;DHT22;33280;52.152;21.052;2024-03-23T07:26:32;9.20;99.90
47540;DHT22;33280;52.152;21.052;2024-03-23T07:29:19;9.20;99.90
47540;DHT22;33280;52.152;21.052;2024-03-23T07:32:05;9.30;99.90
47540;DHT22;33280;52.152;21.052;2024-03-23T07:34:52;9.20;99.90
47540;DHT22;33280;52.152;21.052;2024-03-23T07:37:39;9.20;99.90
47540;DHT22;33280;52.152;21.052;2024-03-23T07:40:26;9.20;99.90
47540;DHT22;33280;52.152;21.052;2024-03-23T07:43:12;9.10;99.90
47540;DHT22;33280;52.152;21.052;2024-03-23T07:45:59;9.10;99.90
47540;DHT22;33280;52.152;21.052;2024-03-23T07:48:46;9.10;99.90
47540;DHT22;33280;52.152;21.052;2024-03-23T07:51:32;9.10;99.90
47540;DHT22;33280;52.152;21.052;2024-03-23T07:54:20;9.10;99.90
47540;DHT22;33280;52.152;21.052;2024-03-23T07:57:07;9.20;99.90
47540;DHT22;33280;52.152;21.052;2024-03-23T07:59:53;9.20;99.90
47540;DHT22;33280;52.152;21.052;2024-03-23T08:02:40;9.30;99.90
47540;DHT22;33280;52.152;21.052;2024-03-23T08:05:27;9.30;99.90
47540;DHT22;33280;52.152;21.052;2024-03-23T08:08:13;9.40;99.90
47540;DHT22;33280;52.152;21.052;2024-03-23T08:11:00;9.50;99.90
47540;DHT22;33280;52.152;21.052;2024-03-23T08:13:47;9.60;99.90
47540;DHT22;33280;52.152;21.052;2024-03-23T08:16:34;9.80;99.90
47540;DHT22;33280;52.152;21.052;2024-03-23T08:19:20;9.80;99.90
47540;DHT22;33280;52.152;21.052;2024-03-23T08:22:06;10.00;99.90
47540;DHT22;33280;52.152;21.052;2024-03-23T08:24:53;10.10;99.90
47540;DHT22;33280;52.152;21.052;2024-03-23T08:27:39;10.10;99.90
47540;DHT22;33280;52.152;21.052;2024-03-23T08:30:26;10.20;99.90
47540;DHT22;33280;52.152;21.052;2024-03-23T08:33:12;10.20;99.90
47540;DHT22;33280;52.152;21.052;2024-03-23T08:36:01;10.20;99.90
47540;DHT22;33280;52.152;21.052;2024-03-23T08:38:47;10.20;99.90
47540;DHT22;33280;52.152;21.052;2024-03-23T08:41:37;10.20;99.90
47540;DHT22;33280;52.152;21.052;2024-03-23T08:44:23;10.30;99.90
47540;DHT22;33280;52.152;21.052;2024-03-23T08:47:10;10.40;99.90
47540;DHT22;33280;52.152;21.052;2024-03-23T08:49:56;11.00;99.90
47540;DHT22;33280;52.152;21.052;2024-03-23T08:52:44;11.40;99.90
47540;DHT22;33280;52.152;21.052;2024-03-23T08:55:30;11.60;99.90
47540;DHT22;33280;52.152;21.052;2024-03-23T08:58:17;11.90;99.90
47540;DHT22;33280;52.152;21.052;2024-03-23T09:01:11;12.20;99.90
47540;DHT22;33280;52.152;21.052;2024-03-23T09:04:00;12.20;99.90
47540;DHT22;33280;52.152;21.052;2024-03-23T09:06:47;12.10;99.90
47540;DHT22;33280;52.152;21.052;2024-03-23T09:09:33;12.10;99.90
47540;DHT22;33280;52.152;21.052;2024-03-23T09:12:19;12.20;99.90
47540;DHT22;33280;52.152;21.052;2024-03-23T09:15:06;12.10;99.90
47540;DHT22;33280;52.152;21.052;2024-03-23T09:17:53;12.20;99.90
47540;DHT22;33280;52.152;21.052;2024-03-23T09:20:39;12.20;99.90
47540;DHT22;33280;52.152;21.052;2024-03-23T09:23:26;12.40;99.90
47540;DHT22;33280;52.152;21.052;2024-03-23T09:26:12;12.80;99.90
47540;DHT22;33280;52.152;21.052;2024-03-23T09:28:58;13.00;99.90
47540;DHT22;33280;52.152;21.052;2024-03-23T09:31:45;13.00;99.90
47540;DHT22;33280;52.152;21.052;2024-03-23T09:34:32;13.00;99.90
47540;DHT22;33280;52.152;21.052;2024-03-23T09:37:18;12.90;99.90
47540;DHT22;33280;52.152;21.052;2024-03-23T09:40:09;13.20;99.90
47540;DHT22;33280;52.152;21.052;2024-03-23T09:42:56;13.40;99.90
47540;DHT22;33280;52.152;21.052;2024-03-23T09:45:42;13.50;99.90
47540;DHT22;33280;52.152;21.052;2024-03-23T09:48:30;13.20;99.90
47540;DHT22;33280;52.152;21.052;2024-03-23T09:51:17;13.10;99.90
47540;DHT22;33280;52.152;21.052;2024-03-23T09:54:03;12.90;99.90
47540;DHT22;33280;52.152;21.052;2024-03-23T09:56:50;12.90;99.90
47540;DHT22;33280;52.152;21.052;2024-03-23T09:59:36;13.00;99.90
47540;DHT22;33280;52.152;21.052;2024-03-23T10:02:24;13.00;99.90
47540;DHT22;33280;52.152;21.052;2024-03-23T10:05:23;13.30;99.90
47540;DHT22;33280;52.152;21.052;2024-03-23T10:11:16;14.00;99.90
47540;DHT22;33280;52.152;21.052;2024-03-23T10:14:02;14.40;99.90
47540;DHT22;33280;52.152;21.052;2024-03-23T10:16:49;14.80;99.90
47540;DHT22;33280;52.152;21.052;2024-03-23T10:19:35;15.40;99.90
47540;DHT22;33280;52.152;21.052;2024-03-23T10:22:23;16.10;99.90
47540;DHT22;33280;52.152;21.052;2024-03-23T10:25:11;16.60;99.90
47540;DHT22;33280;52.152;21.052;2024-03-23T10:27:59;17.10;99.90
47540;DHT22;33280;52.152;21.052;2024-03-23T10:30:46;17.50;99.90
47540;DHT22;33280;52.152;21.052;2024-03-23T10:33:33;17.60;99.90
47540;DHT22;33280;52.152;21.052;2024-03-23T10:36:24;17.80;99.90
47540;DHT22;33280;52.152;21.052;2024-03-23T10:39:14;18.00;99.90
47540;DHT22;33280;52.152;21.052;2024-03-23T10:42:05;18.50;99.90
47540;DHT22;33280;52.152;21.052;2024-03-23T10:44:52;19.00;99.90
47540;DHT22;33280;52.152;21.052;2024-03-23T10:47:39;19.00;99.90
47540;DHT22;33280;52.152;21.052;2024-03-23T10:50:26;19.30;99.90
47540;DHT22;33280;52.152;21.052;2024-03-23T10:53:14;19.40;99.90
47540;DHT22;33280;52.152;21.052;2024-03-23T10:56:04;19.00;99.90
47540;DHT22;33280;52.152;21.052;2024-03-23T10:58:51;19.80;99.90
47540;DHT22;33280;52.152;21.052;2024-03-23T11:01:58;19.80;99.90
47540;DHT22;33280;52.152;21.052;2024-03-23T11:04:45;20.00;99.90
47540;DHT22;33280;52.152;21.052;2024-03-23T11:07:35;19.80;99.90
47540;DHT22;33280;52.152;21.052;2024-03-23T11:10:30;19.70;99.90
47540;DHT22;33280;52.152;21.052;2024-03-23T11:13:24;20.30;99.90
47540;DHT22;33280;52.152;21.052;2024-03-23T11:16:37;20.80;99.90
47540;DHT22;33280;52.152;21.052;2024-03-23T11:19:38;21.80;99.90
47540;DHT22;33280;52.152;21.052;2024-03-23T11:22:44;21.50;99.90
47540;DHT22;33280;52.152;21.052;2024-03-23T11:25:30;21.60;99.90
47540;DHT22;33280;52.152;21.052;2024-03-23T11:28:17;20.70;99.90
47540;DHT22;33280;52.152;21.052;2024-03-23T11:31:09;21.10;99.90
47540;DHT22;33280;52.152;21.052;2024-03-23T11:34:04;21.00;99.90
47540;DHT22;33280;52.152;21.052;2024-03-23T11:37:04;20.80;99.90
47540;DHT22;33280;52.152;21.052;2024-03-23T11:39:51;21.20;99.90
47540;DHT22;33280;52.152;21.052;2024-03-23T11:42:37;20.80;99.90
47540;DHT22;33280;52.152;21.052;2024-03-23T11:45:24;21.40;99.90
47540;DHT22;33280;52.152;21.052;2024-03-23T11:48:18;22.10;99.90
47540;DHT22;33280;52.152;21.052;2024-03-23T11:51:05;22.50;99.90
47540;DHT22;33280;52.152;21.052;2024-03-23T11:53:52;22.40;99.90
47540;DHT22;33280;52.152;21.052;2024-03-23T11:56:39;22.70;99.90
47540;DHT22;33280;52.152;21.052;2024-03-23T11:59:42;22.00;99.90
47540;DHT22;33280;52.152;21.052;2024-03-23T12:02:30;21.20;99.90
47540;DHT22;33280;52.152;21.052;2024-03-23T12:05:17;20.50;99.90
47540;DHT22;33280;52.152;21.052;2024-03-23T12:08:20;20.30;99.90
47540;DHT22;33280;52.152;21.052;2024-03-23T12:11:17;20.50;99.90
47540;DHT22;33280;52.152;21.052;2024-03-23T12:14:03;20.80;99.90
47540;DHT22;33280;52.152;21.052;2024-03-23T12:16:50;21.20;99.90
47540;DHT22;33280;52.152;21.052;2024-03-23T12:19:36;21.90;99.90
47540;DHT22;33280;52.152;21.052;2024-03-23T12:22:23;22.20;99.90
47540;DHT22;33280;52.152;21.052;2024-03-23T12:25:10;21.70;98.80
47540;DHT22;33280;52.152;21.052;2024-03-23T12:27:59;22.30;98.80
47540;DHT22;33280;52.152;21.052;2024-03-23T12:30:45;21.10;99.90
47540;DHT22;33280;52.152;21.052;2024-03-23T12:33:31;20.60;99.90
47540;DHT22;33280;52.152;21.052;2024-03-23T12:36:18;19.70;99.90
47540;DHT22;33280;52.152;21.052;2024-03-23T12:39:04;19.20;99.90
47540;DHT22;33280;52.152;21.052;2024-03-23T12:41:51;18.70;99.90
47540;DHT22;33280;52.152;21.052;2024-03-23T12:44:38;18.30;99.90
47540;DHT22;33280;52.152;21.052;2024-03-23T12:47:25;18.10;99.90
47540;DHT22;33280;52.152;21.052;2024-03-23T12:50:11;18.00;99.90
47540;DHT22;33280;52.152;21.052;2024-03-23T12:52:58;17.80;99.90
47540;DHT22;33280;52.152;21.052;2024-03-23T12:55:44;17.60;99.90
47540;DHT22;33280;52.152;21.052;2024-03-23T12:58:30;17.30;99.90
47540;DHT22;33280;52.152;21.052;2024-03-23T13:01:17;17.00;99.90
47540;DHT22;33280;52.152;21.052;2024-03-23T13:04:05;16.80;99.90
47540;DHT22;33280;52.152;21.052;2024-03-23T13:06:51;16.70;99.90
47540;DHT22;33280;52.152;21.052;2024-03-23T13:09:37;16.70;99.90
47540;DHT22;33280;52.152;21.052;2024-03-23T13:12:24;16.70;99.90
47540;DHT22;33280;52.152;21.052;2024-03-23T13:15:10;16.60;99.90
47540;DHT22;33280;52.152;21.052;2024-03-23T13:17:57;16.60;99.90
47540;DHT22;33280;52.152;21.052;2024-03-23T13:20:44;16.50;99.90
47540;DHT22;33280;52.152;21.052;2024-03-23T13:23:31;16.40;99.90
47540;DHT22;33280;52.152;21.052;2024-03-23T13:26:19;16.30;99.90
47540;DHT22;33280;52.152;21.052;2024-03-23T13:29:05;16.30;99.90
47540;DHT22;33280;52.152;21.052;2024-03-23T13:31:52;16.40;99.90
47540;DHT22;33280;52.152;21.052;2024-03-23T13:34:39;16.50;99.90
47540;DHT22;33280;52.152;21.052;2024-03-23T13:37:26;16.50;99.90
47540;DHT22;33280;52.152;21.052;2024-03-23T13:40:12;16.40;99.90
47540;DHT22;33280;52.152;21.052;2024-03-23T13:42:59;16.50;99.90
47540;DHT22;33280;52.152;21.052;2024-03-23T13:45:47;16.50;99.90
47540;DHT22;33280;52.152;21.052;2024-03-23T13:48:34;16.60;99.90
47540;DHT22;33280;52.152;21.052;2024-03-23T13:51:24;16.40;99.90
47540;DHT22;33280;52.152;21.052;2024-03-23T13:54:13;16.30;99.90
47540;DHT22;33280;52.152;21.052;2024-03-23T13:56:59;16.30;99.90
47540;DHT22;33280;52.152;21.052;2024-03-23T13:59:45;16.30;99.90
47540;DHT22;33280;52.152;21.052;2024-03-23T14:02:32;16.30;99.90
47540;DHT22;33280;52.152;21.052;2024-03-23T14:05:18;16.30;99.90
47540;DHT22;33280;52.152;21.052;2024-03-23T14:08:08;16.20;99.90
47540;DHT22;33280;52.152;21.052;2024-03-23T14:10:55;16.20;99.90
47540;DHT22;33280;52.152;21.052;2024-03-23T14:17:11;16.10;99.90
47540;DHT22;33280;52.152;21.052;2024-03-23T14:23:46;16.10;99.90
47540;DHT22;33280;52.152;21.052;2024-03-23T14:27:00;16.10;99.90
47540;DHT22;33280;52.152;21.052;2024-03-23T14:30:18;16.10;99.90
47540;DHT22;33280;52.152;21.052;2024-03-23T14:33:04;16.10;99.90
47540;DHT22;33280;52.152;21.052;2024-03-23T14:35:56;16.10;99.90
47540;DHT22;33280;52.152;21.052;2024-03-23T14:42:10;16.00;99.90
47540;DHT22;33280;52.152;21.052;2024-03-23T14:52:22;15.90;99.90
47540;DHT22;33280;52.152;21.052;2024-03-23T14:55:09;15.70;99.90
47540;DHT22;33280;52.152;21.052;2024-03-23T14:57:55;15.70;99.90
47540;DHT22;33280;52.152;21.052;2024-03-23T15:01:03;15.60;99.90
47540;DHT22;33280;52.152;21.052;2024-03-23T15:07:51;15.10;99.90
47540;DHT22;33280;52.152;21.052;2024-03-23T15:10:37;14.90;99.90
47540;DHT22;33280;52.152;21.052;2024-03-23T15:13:23;14.80;99.90
47540;DHT22;33280;52.152;21.052;2024-03-23T15:16:41;14.70;99.90
47540;DHT22;33280;52.152;21.052;2024-03-23T15:23:13;14.40;99.90
47540;DHT22;33280;52.152;21.052;2024-03-23T15:29:42;13.70;99.90
47540;DHT22;33280;52.152;21.052;2024-03-23T15:32:32;13.20;99.90
47540;DHT22;33280;52.152;21.052;2024-03-23T15:35:33;12.80;99.90
47540;DHT22;33280;52.152;21.052;2024-03-23T15:38:19;12.50;99.90
47540;DHT22;33280;52.152;21.052;2024-03-23T15:44:58;11.80;99.90
47540;DHT22;33280;52.152;21.052;2024-03-23T15:47:51;11.80;99.90
47540;DHT22;33280;52.152;21.052;2024-03-23T15:54:23;11.50;99.90
47540;DHT22;33280;52.152;21.052;2024-03-23T15:57:29;11.30;99.90
47540;DHT22;33280;52.152;21.052;2024-03-23T16:00:16;11.40;99.90
47540;DHT22;33280;52.152;21.052;2024-03-23T16:03:05;11.30;99.90
47540;DHT22;33280;52.152;21.052;2024-03-23T16:05:59;11.20;99.90
47540;DHT22;33280;52.152;21.052;2024-03-23T16:08:45;11.20;99.90
47540;DHT22;33280;52.152;21.052;2024-03-23T16:11:32;11.20;99.90
47540;DHT22;33280;52.152;21.052;2024-03-23T16:14:23;11.20;99.90
47540;DHT22;33280;52.152;21.052;2024-03-23T16:17:12;11.30;99.90
47540;DHT22;33280;52.152;21.052;2024-03-23T16:20:03;11.30;99.90
47540;DHT22;33280;52.152;21.052;2024-03-23T16:22:50;11.30;99.90
47540;DHT22;33280;52.152;21.052;2024-03-23T16:25:46;11.30;99.90
47540;DHT22;33280;52.152;21.052;2024-03-23T16:28:45;11.20;99.90
47540;DHT22;33280;52.152;21.052;2024-03-23T16:31:40;11.00;99.90
47540;DHT22;33280;52.152;21.052;2024-03-23T16:34:30;11.00;99.90
47540;DHT22;33280;52.152;21.052;2024-03-23T16:37:31;11.00;99.90
47540;DHT22;33280;52.152;21.052;2024-03-23T16:40:39;11.00;99.90
47540;DHT22;33280;52.152;21.052;2024-03-23T16:43:35;10.90;99.90
47540;DHT22;33280;52.152;21.052;2024-03-23T16:46:32;10.90;99.90
47540;DHT22;33280;52.152;21.052;2024-03-23T16:49:20;10.90;99.90
47540;DHT22;33280;52.152;21.052;2024-03-23T16:52:13;10.90;99.90
47540;DHT22;33280;52.152;21.052;2024-03-23T16:55:18;10.80;99.90
47540;DHT22;33280;52.152;21.052;2024-03-23T16:58:04;10.80;99.90
47540;DHT22;33280;52.152;21.052;2024-03-23T17:00:58;10.80;99.90
47540;DHT22;33280;52.152;21.052;2024-03-23T17:04:01;10.80;99.90
47540;DHT22;33280;52.152;21.052;2024-03-23T17:06:51;10.80;99.90
47540;DHT22;33280;52.152;21.052;2024-03-23T17:10:01;10.70;99.90
47540;DHT22;33280;52.152;21.052;2024-03-23T17:12:47;10.70;99.90
47540;DHT22;33280;52.152;21.052;2024-03-23T17:18:47;10.60;99.90
47540;DHT22;33280;52.152;21.052;2024-03-23T17:21:36;10.60;99.90
47540;DHT22;33280;52.152;21.052;2024-03-23T17:24:28;10.60;99.90
47540;DHT22;33280;52.152;21.052;2024-03-23T17:27:17;10.60;99.90
47540;DHT22;33280;52.152;21.052;2024-03-23T17:30:04;10.60;99.90
47540;DHT22;33280;52.152;21.052;2024-03-23T17:33:13;10.60;99.90
47540;DHT22;33280;52.152;21.052;2024-03-23T17:36:05;10.50;99.90
47540;DHT22;33280;52.152;21.052;2024-03-23T17:39:22;10.50;99.90
47540;DHT22;33280;52.152;21.052;2024-03-23T17:42:12;10.50;99.90
47540;DHT22;33280;52.152;21.052;2024-03-23T17:48:17;10.50;99.90
47540;DHT22;33280;52.152;21.052;2024-03-23T17:51:09;10.50;99.90
47540;DHT22;33280;52.152;21.052;2024-03-23T17:53:58;10.40;99.90
47540;DHT22;33280;52.152;21.052;2024-03-23T17:56:44;10.50;99.90
47540;DHT22;33280;52.152;21.052;2024-03-23T18:03:00;10.50;99.90
47540;DHT22;33280;52.152;21.052;2024-03-23T18:05:52;10.60;99.90
47540;DHT22;33280;52.152;21.052;2024-03-23T18:08:41;10.60;99.90
47540;DHT22;33280;52.152;21.052;2024-03-23T18:11:27;10.60;99.90
47540;DHT22;33280;52.152;21.052;2024-03-23T18:17:42;10.70;99.90
47540;DHT22;33280;52.152;21.052;2024-03-23T18:20:30;10.50;99.90
47540;DHT22;33280;52.152;21.052;2024-03-23T18:23:17;10.50;99.90
47540;DHT22;33280;52.152;21.052;2024-03-23T18:26:22;10.40;99.90
47540;DHT22;33280;52.152;21.052;2024-03-23T18:29:09;10.40;99.90
47540;DHT22;33280;52.152;21.052;2024-03-23T18:32:01;10.20;99.90
47540;DHT22;33280;52.152;21.052;2024-03-23T18:34:48;10.10;99.90
47540;DHT22;33280;52.152;21.052;2024-03-23T18:37:39;10.10;99.90
47540;DHT22;33280;52.152;21.052;2024-03-23T18:40:25;10.00;99.90
47540;DHT22;33280;52.152;21.052;2024-03-23T18:43:11;9.90;99.90
47540;DHT22;33280;52.152;21.052;2024-03-23T18:49:22;9.60;99.90
47540;DHT22;33280;52.152;21.052;2024-03-23T18:52:08;9.30;99.90
47540;DHT22;33280;52.152;21.052;2024-03-23T18:58:24;8.70;99.90
47540;DHT22;33280;52.152;21.052;2024-03-23T19:01:10;8.40;99.90
47540;DHT22;33280;52.152;21.052;2024-03-23T19:03:57;8.20;99.90
47540;DHT22;33280;52.152;21.052;2024-03-23T19:06:43;8.10;99.90
47540;DHT22;33280;52.152;21.052;2024-03-23T19:09:54;7.90;99.90
47540;DHT22;33280;52.152;21.052;2024-03-23T19:12:41;7.90;99.90
47540;DHT22;33280;52.152;21.052;2024-03-23T19:15:27;7.80;99.90
47540;DHT22;33280;52.152;21.052;2024-03-23T19:18:14;7.50;99.90
47540;DHT22;33280;52.152;21.052;2024-03-23T19:24:06;7.00;99.90
47540;DHT22;33280;52.152;21.052;2024-03-23T19:26:52;6.80;99.90
47540;DHT22;33280;52.152;21.052;2024-03-23T19:32:46;6.60;99.90
47540;DHT22;33280;52.152;21.052;2024-03-23T19:35:33;6.50;99.90
47540;DHT22;33280;52.152;21.052;2024-03-23T19:38:19;6.40;99.90